Fort Benton (79S)
Fort Benton, MT
Field Elevation: 2868
Lat: 47°50.71N  Long: 110°38.19W
CTAF/Unicom Freq: 122.8000
   
     For Weather-by-Phone, call 406-622-5976
Weather Advisories
2019-10-18   11:59 Z
Altimeter 29.61" Hg
Wind 170° @ 10 KT
Gusts 14 KT
Visibility 10 SM
Temperature 7° C (45° F)
Dewpoint -3° C (27° F)
Relative Humidity 50%
Density Altitude --
Condensation Altitude 7,900 feet
Wind Chill: 4° C (39° F)
Wind and Runways
Indicated Runway = 14
Headwind = 9 kt
Crosswind = 5 kt
History
 
 
 
More Info
NOAA Forecast
 
 
About Us
Belfort Instrument
 
 
FAA Disclaimer: The data displayed is for advisory purposes only and is not to be used for flight planning or operations. For official data, please call 406-622-5976 to hear the current automated AWOS voice message.
  METAR 79S 181159Z AUTO 17010G14KT 10 SM 07/M03 A2961